TimeCST,TemperatureF,Dew PointF,Humidity,Sea Level PressureIn,VisibilityMPH,Wind Direction,Wind SpeedMPH,Gust SpeedMPH,PrecipitationIn,Events,Conditions,WindDirDegrees,DateUTC
12:56 AM,28.9,23.0,78,30.38,10.0,North,3.5,-,N/A,,Clear,10,2013-12-25 06:56:00
1:56 AM,28.0,23.0,81,30.38,10.0,North,3.5,-,N/A,,Clear,10,2013-12-25 07:56:00
2:56 AM,27.0,21.9,81,30.38,10.0,NNE,3.5,-,N/A,,Clear,30,2013-12-25 08:56:00
3:56 AM,26.1,21.0,81,30.39,10.0,Calm,Calm,-,N/A,,Clear,0,2013-12-25 09:56:00
4:56 AM,26.1,21.0,81,30.38,10.0,North,3.5,-,N/A,,Clear,10,2013-12-25 10:56:00
5:56 AM,26.1,21.0,81,30.38,10.0,NNE,5.8,-,N/A,,Clear,30,2013-12-25 11:56:00
6:56 AM,27.0,21.0,78,30.39,10.0,NE,5.8,-,N/A,,Clear,40,2013-12-25 12:56:00
7:56 AM,30.0,21.9,72,30.40,10.0,NE,5.8,-,N/A,,Clear,50,2013-12-25 13:56:00
8:56 AM,34.0,24.1,67,30.41,10.0,East,5.8,-,N/A,,Clear,80,2013-12-25 14:56:00
9:56 AM,39.0,26.1,60,30.40,10.0,Variable,4.6,-,N/A,,Clear,0,2013-12-25 15:56:00
10:56 AM,41.0,27.0,57,30.38,10.0,ENE,4.6,-,N/A,,Clear,70,2013-12-25 16:56:00
11:56 AM,46.0,28.0,50,30.34,10.0,Variable,3.5,-,N/A,,Clear,0,2013-12-25 17:56:00
12:56 PM,48.9,28.0,44,30.31,10.0,ENE,5.8,-,N/A,,Clear,70,2013-12-25 18:56:00
1:56 PM,50.0,28.0,43,30.29,10.0,Calm,Calm,-,N/A,,Clear,0,2013-12-25 19:56:00
2:56 PM,48.9,28.9,46,30.28,10.0,North,5.8,-,N/A,,Clear,10,2013-12-25 20:56:00
3:56 PM,46.0,30.0,54,30.30,10.0,NNE,6.9,-,N/A,,Clear,20,2013-12-25 21:56:00
4:56 PM,44.1,30.9,60,30.32,10.0,North,5.8,-,N/A,,Clear,350,2013-12-25 22:56:00
5:56 PM,43.0,30.9,62,30.32,10.0,North,3.5,-,N/A,,Clear,350,2013-12-25 23:56:00
6:56 PM,41.0,32.0,70,30.33,10.0,North,3.5,-,N/A,,Clear,360,2013-12-26 00:56:00
7:56 PM,37.9,32.0,79,30.34,10.0,Calm,Calm,-,N/A,,Clear,0,2013-12-26 01:56:00
8:56 PM,37.0,33.1,86,30.33,10.0,North,3.5,-,N/A,,Clear,10,2013-12-26 02:56:00
9:49 PM,37.4,32.0,81,30.33,10.0,North,4.6,-,N/A,,Mostly Cloudy,10,2013-12-26 03:49:00
9:56 PM,37.0,32.0,82,30.33,10.0,North,5.8,-,N/A,,Mostly Cloudy,10,2013-12-26 03:56:00
10:15 PM,39.2,30.2,70,30.32,10.0,North,4.6,-,N/A,,Scattered Clouds,360,2013-12-26 04:15:00
10:56 PM,39.0,30.9,73,30.32,10.0,North,4.6,-,N/A,,Clear,350,2013-12-26 04:56:00
11:56 PM,39.0,30.9,73,30.31,10.0,North,3.5,-,N/A,,Clear,360,2013-12-26 05:56:00